createdAt,value
2023-04-12T00:00:00.013Z,1.47
2023-04-12T00:02:40.499Z,1.50
2023-04-12T00:05:11.887Z,1.73
2023-04-12T00:07:45.711Z,1.40
2023-04-12T00:10:17.418Z,1.13
2023-04-12T00:12:46.840Z,1.30
2023-04-12T00:15:18.866Z,1.23
2023-04-12T00:17:51.097Z,1.37
2023-04-12T00:20:23.468Z,1.60
2023-04-12T00:22:55.583Z,1.20
2023-04-12T00:25:31.101Z,2.17
2023-04-12T00:28:00.368Z,1.10
2023-04-12T00:30:31.232Z,1.10
2023-04-12T00:33:04.184Z,1.00
2023-04-12T00:35:34.284Z,1.27
2023-04-12T00:38:07.503Z,1.37
2023-04-12T00:40:41.729Z,1.60
2023-04-12T00:43:19.144Z,1.00
2023-04-12T00:45:50.024Z,1.40
2023-04-12T00:48:22.121Z,1.50
2023-04-12T00:50:55.998Z,1.97
2023-04-12T00:53:27.251Z,1.50
2023-04-12T00:55:59.877Z,1.90
2023-04-12T00:58:32.262Z,1.33
2023-04-12T01:01:04.007Z,1.10
2023-04-12T01:03:36.881Z,1.20
2023-04-12T01:06:16.505Z,1.50
2023-04-12T01:08:56.996Z,1.80
2023-04-12T01:11:29.355Z,1.13
2023-04-12T01:14:03.820Z,1.30
2023-04-12T01:16:41.222Z,1.10
2023-04-12T01:19:18.328Z,1.33
2023-04-12T01:21:50.948Z,1.30
2023-04-12T01:24:41.309Z,1.43
2023-04-12T01:27:17.834Z,1.20
2023-04-12T01:29:52.279Z,1.20
2023-04-12T01:32:26.301Z,1.40
2023-04-12T01:34:59.227Z,1.27
2023-04-12T01:37:31.198Z,1.30
2023-04-12T01:40:04.768Z,1.20
2023-04-12T01:42:35.352Z,1.37
2023-04-12T01:45:09.542Z,1.23
2023-04-12T01:47:40.499Z,1.10
2023-04-12T01:50:15.473Z,1.13
2023-04-12T01:52:48.584Z,1.30
2023-04-12T01:55:21.358Z,1.40
2023-04-12T01:57:52.786Z,1.50
2023-04-12T02:00:29.375Z,1.57
2023-04-12T02:03:16.340Z,1.70
2023-04-12T02:05:55.752Z,1.23
2023-04-12T02:08:26.177Z,2.43
2023-04-12T02:10:55.628Z,1.63
2023-04-12T02:13:27.168Z,2.33
2023-04-12T02:15:59.494Z,1.77
2023-04-12T02:18:31.923Z,3.07
2023-04-12T02:21:00.849Z,1.13
2023-04-12T02:23:33.544Z,1.00
2023-04-12T02:26:03.852Z,1.40
2023-04-12T02:28:35.141Z,1.10
2023-04-12T02:31:09.512Z,2.93
2023-04-12T02:33:47.302Z,1.50
2023-04-12T02:36:18.690Z,0.90
2023-04-12T02:38:54.488Z,1.53
2023-04-12T02:41:25.460Z,1.10
2023-04-12T02:43:57.576Z,1.60
2023-04-12T02:46:31.067Z,1.60
2023-04-12T02:49:02.147Z,2.13
2023-04-12T02:51:34.631Z,1.97
2023-04-12T02:54:07.025Z,1.53
2023-04-12T02:56:38.788Z,2.13
2023-04-12T02:59:10.860Z,3.03
2023-04-12T03:01:43.461Z,2.67
2023-04-12T03:04:18.892Z,2.10
2023-04-12T03:06:55.419Z,1.90
2023-04-12T03:09:25.796Z,2.80
2023-04-12T03:11:59.647Z,3.07
2023-04-12T03:14:28.977Z,1.83
2023-04-12T03:16:59.912Z,1.70
2023-04-12T03:19:33.869Z,2.77
2023-04-12T03:22:05.834Z,1.47
2023-04-12T03:24:46.371Z,1.43
2023-04-12T03:27:18.657Z,1.83
2023-04-12T03:29:50.499Z,1.63
2023-04-12T03:32:23.363Z,1.93
2023-04-12T03:34:54.723Z,1.40
2023-04-12T03:37:26.912Z,1.30
2023-04-12T03:39:57.859Z,1.17
2023-04-12T03:42:33.388Z,1.10
2023-04-12T03:45:07.559Z,1.07
2023-04-12T03:47:42.599Z,1.00
2023-04-12T03:50:15.971Z,0.63
2023-04-12T03:52:46.507Z,0.90
2023-04-12T03:55:20.455Z,0.73
2023-04-12T03:57:50.363Z,0.87
2023-04-12T04:00:21.900Z,1.20
2023-04-12T04:02:54.703Z,0.90
2023-04-12T04:05:33.522Z,0.97
2023-04-12T04:08:08.877Z,0.90
2023-04-12T04:10:39.454Z,1.10
2023-04-12T04:13:13.226Z,0.80
2023-04-12T04:15:44.901Z,0.93
2023-04-12T04:18:19.187Z,0.73
2023-04-12T04:20:50.092Z,0.90
2023-04-12T04:23:19.664Z,1.00
2023-04-12T04:25:54.699Z,0.90
2023-04-12T04:28:24.438Z,1.07
2023-04-12T04:30:57.188Z,1.70
2023-04-12T04:33:30.816Z,2.47
2023-04-12T04:36:14.614Z,2.10
2023-04-12T04:38:46.703Z,2.23
2023-04-12T04:41:17.971Z,1.47
2023-04-12T04:43:52.927Z,1.20
2023-04-12T04:46:22.594Z,1.40
2023-04-12T04:48:56.122Z,1.30
2023-04-12T04:51:26.023Z,1.30
2023-04-12T04:53:59.595Z,1.00
2023-04-12T04:56:30.840Z,0.97
2023-04-12T04:59:00.635Z,1.17
2023-04-12T05:01:33.408Z,1.00
2023-04-12T05:04:07.957Z,0.70
2023-04-12T05:06:40.184Z,0.90
2023-04-12T05:09:15.375Z,0.87
2023-04-12T05:11:46.649Z,0.90
2023-04-12T05:14:17.307Z,1.10
2023-04-12T05:16:47.063Z,1.00
2023-04-12T05:19:19.732Z,1.23
2023-04-12T05:21:52.073Z,0.80
2023-04-12T05:24:24.100Z,1.10
2023-04-12T05:26:53.231Z,0.77
2023-04-12T05:29:27.832Z,0.60
2023-04-12T05:31:59.609Z,0.80
2023-04-12T05:34:32.311Z,0.60
2023-04-12T05:37:05.037Z,0.90
2023-04-12T05:39:43.970Z,2.07
2023-04-12T05:42:15.109Z,1.40
2023-04-12T05:44:49.307Z,0.80
2023-04-12T05:47:23.474Z,0.60
2023-04-12T05:49:56.023Z,0.73
2023-04-12T05:52:27.153Z,0.60
2023-04-12T05:54:59.662Z,0.60
2023-04-12T05:57:31.192Z,0.83
2023-04-12T06:00:10.384Z,0.90
2023-04-12T06:02:48.941Z,0.63
2023-04-12T06:05:22.478Z,0.70
2023-04-12T06:08:03.755Z,0.80
2023-04-12T06:10:33.532Z,0.80
2023-04-12T06:13:28.594Z,1.00
2023-04-12T06:16:14.928Z,0.90
2023-04-12T06:18:43.504Z,0.70
2023-04-12T06:21:13.362Z,0.90
2023-04-12T06:24:05.084Z,0.90
2023-04-12T06:26:53.256Z,0.90
2023-04-12T06:29:39.604Z,1.07
2023-04-12T06:32:29.633Z,1.30
2023-04-12T06:35:06.570Z,1.50
2023-04-12T06:37:52.052Z,1.70
2023-04-12T06:40:21.247Z,1.47
2023-04-12T06:42:59.867Z,1.37
2023-04-12T06:52:21.839Z,1.40
2023-04-12T06:54:56.217Z,1.57
2023-04-12T06:57:31.340Z,1.60
2023-04-12T07:00:19.751Z,1.50
2023-04-12T07:03:10.756Z,1.43
2023-04-12T07:06:23.691Z,1.63
2023-04-12T07:08:53.959Z,1.80
2023-04-12T07:11:24.182Z,1.70
2023-04-12T07:14:09.198Z,1.43
2023-04-12T07:17:03.701Z,1.93
2023-04-12T07:19:48.957Z,1.73
2023-04-12T07:22:17.411Z,2.00
2023-04-12T07:24:45.923Z,1.80
2023-04-12T07:27:15.930Z,1.83
2023-04-12T07:29:44.660Z,1.63
2023-04-12T07:32:13.134Z,1.97
2023-04-12T07:34:41.909Z,1.97
2023-04-12T07:37:10.522Z,1.60
2023-04-12T07:39:40.656Z,1.83
2023-04-12T07:42:10.046Z,2.10
2023-04-12T07:44:39.911Z,1.57
2023-04-12T07:50:13.191Z,2.00
2023-04-12T07:52:42.107Z,2.10
2023-04-12T07:55:11.398Z,1.70
2023-04-12T07:57:40.076Z,1.70
2023-04-12T08:00:11.717Z,1.80
2023-04-12T08:02:40.391Z,2.00
2023-04-12T08:05:09.657Z,1.83
2023-04-12T08:07:38.200Z,1.67
2023-04-12T08:10:07.125Z,1.53
2023-04-12T08:12:35.626Z,1.50
2023-04-12T08:15:04.138Z,1.77
2023-04-12T08:17:34.193Z,1.70
2023-04-12T08:20:04.683Z,1.60
2023-04-12T08:22:33.297Z,1.50
2023-04-12T08:25:01.862Z,1.80
2023-04-12T08:27:31.575Z,1.87
2023-04-12T08:30:00.128Z,1.97
2023-04-12T08:32:28.685Z,1.80
2023-04-12T08:34:58.530Z,1.93
2023-04-12T08:37:27.130Z,1.70
2023-04-12T08:39:55.771Z,1.90
2023-04-12T08:42:24.283Z,1.70
2023-04-12T08:44:54.044Z,2.13
2023-04-12T08:47:23.089Z,1.57
2023-04-12T08:49:51.679Z,1.60
2023-04-12T08:52:21.672Z,1.37
2023-04-12T08:54:50.256Z,1.33
2023-04-12T08:57:20.367Z,1.40
2023-04-12T08:59:50.750Z,1.33
2023-04-12T09:02:19.484Z,1.47
2023-04-12T09:04:52.479Z,1.20
2023-04-12T09:07:27.881Z,1.30
2023-04-12T09:09:56.850Z,1.10
2023-04-12T09:12:25.869Z,1.10
2023-04-12T09:15:08.623Z,0.87
2023-04-12T09:17:38.927Z,1.10
2023-04-12T09:20:25.069Z,1.13
2023-04-12T09:22:55.807Z,1.10
2023-04-12T09:25:40.794Z,1.10
2023-04-12T09:28:26.931Z,1.00
2023-04-12T09:30:55.791Z,1.00
2023-04-12T09:33:25.199Z,0.90
2023-04-12T09:36:02.067Z,1.20
2023-04-12T09:38:32.316Z,1.10
2023-04-12T09:41:19.614Z,1.00
2023-04-12T09:43:49.273Z,1.17
2023-04-12T09:46:17.813Z,1.40
2023-04-12T09:48:51.024Z,0.97
2023-04-12T09:51:26.760Z,0.90
2023-04-12T09:53:59.573Z,0.97
2023-04-12T09:56:30.820Z,1.00
2023-04-12T09:59:02.516Z,1.30
2023-04-12T10:01:31.861Z,1.57
2023-04-12T10:04:00.895Z,1.30
2023-04-12T10:06:29.643Z,1.10
2023-04-12T10:09:02.635Z,1.30
2023-04-12T10:11:31.126Z,1.40
2023-04-12T10:14:00.610Z,1.10
2023-04-12T10:16:29.246Z,1.27
2023-04-12T10:18:58.025Z,1.50
2023-04-12T10:21:26.967Z,1.27
2023-04-12T10:23:55.512Z,1.00
2023-04-12T10:26:25.587Z,1.13
2023-04-12T10:29:09.563Z,1.20
2023-04-12T10:31:38.188Z,1.00
2023-04-12T10:34:07.620Z,1.00
2023-04-12T10:36:55.157Z,1.10
2023-04-12T10:39:40.255Z,1.10
2023-04-12T10:42:20.220Z,1.13
2023-04-12T10:44:50.294Z,0.87
2023-04-12T10:47:18.843Z,1.30
2023-04-12T10:50:02.336Z,1.00
2023-04-12T10:52:30.906Z,1.00
2023-04-12T10:54:59.384Z,1.20
2023-04-12T10:57:47.323Z,1.50
2023-04-12T11:00:16.682Z,1.00
2023-04-12T11:03:12.728Z,1.10
2023-04-12T11:06:09.183Z,1.10
2023-04-12T11:08:48.915Z,1.00
2023-04-12T11:11:20.975Z,1.17
2023-04-12T11:13:57.176Z,1.10
2023-04-12T11:16:25.724Z,1.10
2023-04-12T11:18:55.940Z,1.00
2023-04-12T11:21:26.167Z,1.10
2023-04-12T11:23:55.770Z,1.20
2023-04-12T11:26:25.397Z,0.97
2023-04-12T11:28:56.274Z,1.33
2023-04-12T11:31:25.035Z,1.10
2023-04-12T11:33:53.539Z,1.10
2023-04-12T11:36:22.161Z,1.00
2023-04-12T11:38:50.927Z,0.87
2023-04-12T11:41:19.477Z,0.80
2023-04-12T11:43:48.134Z,0.87
2023-04-12T11:46:18.664Z,0.93
2023-04-12T11:48:47.711Z,1.00
2023-04-12T11:51:24.996Z,0.97
2023-04-12T11:53:57.211Z,1.00
2023-04-12T11:56:26.545Z,0.87
2023-04-12T11:58:55.012Z,0.90
2023-04-12T12:01:25.598Z,0.97
2023-04-12T12:03:54.913Z,0.70
2023-04-12T12:06:24.447Z,0.90
2023-04-12T12:08:53.739Z,0.93
2023-04-12T12:11:23.633Z,0.90
2023-04-12T12:13:52.985Z,0.80
2023-04-12T12:16:25.772Z,0.77
2023-04-12T12:18:56.038Z,0.70
2023-04-12T12:21:26.485Z,0.90
2023-04-12T12:23:56.575Z,1.40
2023-04-12T12:26:26.142Z,0.60
2023-04-12T12:28:55.747Z,0.90
2023-04-12T12:31:24.616Z,0.90
2023-04-12T12:33:57.966Z,0.60
2023-04-12T12:36:32.707Z,0.60
2023-04-12T12:39:07.051Z,0.47
2023-04-12T12:41:36.968Z,0.70
2023-04-12T12:44:05.721Z,0.57
2023-04-12T12:49:07.200Z,0.70
2023-04-12T12:51:35.932Z,0.53
2023-04-12T12:54:06.353Z,0.80
2023-04-12T12:56:35.647Z,0.73
2023-04-12T12:59:04.192Z,0.97
2023-04-12T13:01:32.857Z,0.67
2023-04-12T13:04:01.650Z,0.70
2023-04-12T13:06:32.244Z,0.70
2023-04-12T13:09:00.951Z,0.77
2023-04-12T13:11:29.663Z,0.70
2023-04-12T13:13:58.301Z,0.60
2023-04-12T13:16:27.141Z,0.80
2023-04-12T13:18:56.402Z,0.70
2023-04-12T13:21:25.138Z,0.70
2023-04-12T13:23:54.979Z,0.63
2023-04-12T13:26:25.809Z,0.67
2023-04-12T13:28:54.408Z,0.90
2023-04-12T13:31:22.978Z,0.70
2023-04-12T13:33:51.514Z,0.50
2023-04-12T13:36:20.152Z,0.70
2023-04-12T13:38:48.679Z,0.53
2023-04-12T13:41:19.388Z,0.70
2023-04-12T13:43:47.930Z,0.70
2023-04-12T13:46:16.453Z,0.77
2023-04-12T13:48:45.004Z,0.70
2023-04-12T13:51:13.762Z,0.43
2023-04-12T13:53:42.281Z,0.60
2023-04-12T13:56:11.883Z,0.70
2023-04-12T13:58:41.835Z,0.30
2023-04-12T14:01:10.696Z,0.60
2023-04-12T14:03:39.539Z,0.60
2023-04-12T14:06:09.554Z,0.83
2023-04-12T14:08:38.155Z,0.70
2023-04-12T14:11:07.421Z,0.60
2023-04-12T14:13:36.065Z,0.60
2023-04-12T14:16:07.424Z,0.70
2023-04-12T14:18:36.130Z,0.50
2023-04-12T14:21:04.787Z,0.60
2023-04-12T14:23:33.236Z,0.50
2023-04-12T14:26:01.880Z,0.40
2023-04-12T14:28:31.718Z,0.47
2023-04-12T14:31:03.616Z,0.40
2023-04-12T14:33:35.011Z,0.80
2023-04-12T14:36:05.195Z,0.70
2023-04-12T14:38:33.884Z,0.40
2023-04-12T14:41:02.796Z,0.67
2023-04-12T14:43:31.377Z,0.67
2023-04-12T14:46:00.295Z,0.57
2023-04-12T14:48:29.034Z,0.80
2023-04-12T14:50:58.883Z,0.50
2023-04-12T14:53:27.378Z,0.40
2023-04-12T14:55:56.056Z,0.60
2023-04-12T14:58:24.571Z,0.87
2023-04-12T15:00:53.129Z,0.67
2023-04-12T15:03:22.361Z,0.60
2023-04-12T15:05:51.012Z,0.67
2023-04-12T15:08:23.396Z,0.73
2023-04-12T15:10:51.969Z,0.77
2023-04-12T15:13:27.271Z,0.70
2023-04-12T15:15:59.509Z,0.50
2023-04-12T15:18:28.031Z,0.60
2023-04-12T15:20:59.962Z,0.60
2023-04-12T15:23:30.648Z,0.77
2023-04-12T15:26:01.306Z,0.60
2023-04-12T15:28:29.946Z,0.80
2023-04-12T15:30:58.633Z,0.60
2023-04-12T15:33:27.095Z,0.50
2023-04-12T15:35:57.611Z,0.50
2023-04-12T15:38:26.475Z,0.60
2023-04-12T15:40:57.349Z,0.63
2023-04-12T15:43:26.091Z,0.73
2023-04-12T15:45:55.085Z,0.80
2023-04-12T15:48:23.858Z,0.80
2023-04-12T15:50:52.844Z,0.70
2023-04-12T15:53:21.862Z,0.80
2023-04-12T15:55:54.928Z,0.93
2023-04-12T15:58:27.113Z,0.73
2023-04-12T16:00:55.619Z,0.70
2023-04-12T16:03:26.447Z,0.80
2023-04-12T16:05:57.299Z,0.73
2023-04-12T16:08:27.270Z,0.87
2023-04-12T16:10:55.736Z,0.60
2023-04-12T16:13:25.842Z,0.80
2023-04-12T16:15:54.330Z,0.77
2023-04-12T16:18:22.863Z,0.90
2023-04-12T16:20:52.288Z,0.73
2023-04-12T16:23:20.959Z,0.70
2023-04-12T16:25:49.413Z,0.70
2023-04-12T16:28:19.632Z,0.67
2023-04-12T16:30:50.238Z,0.70
2023-04-12T16:33:19.108Z,1.00
2023-04-12T16:35:47.752Z,0.60
2023-04-12T16:38:17.770Z,0.80
2023-04-12T16:40:47.096Z,0.90
2023-04-12T16:43:15.771Z,0.80
2023-04-12T16:45:46.338Z,0.90
2023-04-12T16:48:16.686Z,0.80
2023-04-12T16:50:47.396Z,1.00
2023-04-12T16:53:16.806Z,1.00
2023-04-12T16:55:46.242Z,1.00
2023-04-12T16:58:14.792Z,1.10
2023-04-12T17:00:43.778Z,1.30
2023-04-12T17:03:12.837Z,1.20
2023-04-12T17:05:43.018Z,1.47
2023-04-12T17:08:12.292Z,1.33
2023-04-12T17:10:40.971Z,1.40
2023-04-12T17:13:09.459Z,1.30
2023-04-12T17:15:38.119Z,1.40
2023-04-12T17:18:07.504Z,1.30
2023-04-12T17:20:36.012Z,1.20
2023-04-12T17:23:06.996Z,1.30
2023-04-12T17:25:36.068Z,1.40
2023-04-12T17:28:04.551Z,1.20
2023-04-12T17:30:33.317Z,1.43
2023-04-12T17:33:02.042Z,1.40
2023-04-12T17:35:30.716Z,1.30
2023-04-12T17:37:59.314Z,1.37
2023-04-12T17:40:29.290Z,1.07
2023-04-12T17:42:57.769Z,1.20
2023-04-12T17:45:26.448Z,1.40
2023-04-12T17:47:55.120Z,1.57
2023-04-12T17:50:23.617Z,1.60
2023-04-12T17:52:52.178Z,1.50
2023-04-12T17:55:23.684Z,1.47
2023-04-12T17:57:53.743Z,1.70
2023-04-12T18:00:24.007Z,1.87
2023-04-12T18:02:52.889Z,1.90
2023-04-12T18:05:21.696Z,1.97
2023-04-12T18:07:50.259Z,1.63
2023-04-12T18:10:21.534Z,1.90
2023-04-12T18:12:50.268Z,2.00
2023-04-12T18:15:20.349Z,2.03
2023-04-12T18:17:48.992Z,2.20
2023-04-12T18:20:17.603Z,2.23
2023-04-12T18:22:46.428Z,2.00
2023-04-12T18:25:15.131Z,2.20
2023-04-12T18:27:43.631Z,2.40
2023-04-12T18:30:14.672Z,2.30
2023-04-12T18:32:44.835Z,2.30
2023-04-12T18:35:13.430Z,2.30
2023-04-12T18:37:42.560Z,2.50
2023-04-12T18:40:12.405Z,2.17
2023-04-12T18:42:40.873Z,2.40
2023-04-12T18:45:10.362Z,2.40
2023-04-12T18:47:40.136Z,2.30
2023-04-12T18:50:11.455Z,2.33
2023-04-12T18:52:40.142Z,2.43
2023-04-12T18:55:09.575Z,2.60
2023-04-12T18:57:38.136Z,2.43
2023-04-12T19:00:11.796Z,2.50
2023-04-12T19:02:40.315Z,3.10
2023-04-12T19:05:11.266Z,2.47
2023-04-12T19:07:39.831Z,2.70
2023-04-12T19:10:09.490Z,2.67
2023-04-12T19:12:38.091Z,3.00
2023-04-12T19:15:07.256Z,2.60
2023-04-12T19:17:39.055Z,2.63
2023-04-12T19:20:08.321Z,2.53
2023-04-12T19:22:38.240Z,2.53
2023-04-12T19:25:07.226Z,2.60
2023-04-12T19:27:36.083Z,2.30
2023-04-12T19:30:04.991Z,2.53
2023-04-12T19:32:33.498Z,2.57
2023-04-12T19:35:02.287Z,2.70
2023-04-12T19:37:34.115Z,2.83
2023-04-12T19:40:05.496Z,2.53
2023-04-12T19:42:33.949Z,2.70
2023-04-12T19:45:02.485Z,2.57
2023-04-12T19:47:31.313Z,2.40
2023-04-12T19:49:59.990Z,2.60
2023-04-12T19:52:28.834Z,2.43
2023-04-12T19:54:58.606Z,2.10
2023-04-12T19:57:29.349Z,2.50
2023-04-12T19:59:57.973Z,2.60
2023-04-12T20:02:26.575Z,2.50
2023-04-12T20:04:55.052Z,2.23
2023-04-12T20:07:23.697Z,2.83
2023-04-12T20:09:52.218Z,2.57
2023-04-12T20:12:20.786Z,2.57
2023-04-12T20:14:50.750Z,2.80
2023-04-12T20:17:19.449Z,2.97
2023-04-12T20:19:47.981Z,3.17
2023-04-12T20:22:16.611Z,2.80
2023-04-12T20:24:47.898Z,2.43
2023-04-12T20:27:18.718Z,2.90
2023-04-12T20:29:47.451Z,2.50
2023-04-12T20:32:18.215Z,2.90
2023-04-12T20:34:48.980Z,2.60
2023-04-12T20:37:17.840Z,2.80
2023-04-12T20:39:46.449Z,3.07
2023-04-12T20:42:16.520Z,2.67
2023-04-12T20:44:45.126Z,2.93
2023-04-12T20:47:13.796Z,2.80
2023-04-12T20:49:43.624Z,3.13
2023-04-12T20:52:12.198Z,2.67
2023-04-12T20:54:41.749Z,2.83
2023-04-12T20:57:10.525Z,3.30
2023-04-12T20:59:39.010Z,3.27
2023-04-12T21:02:09.503Z,2.87
2023-04-12T21:04:39.650Z,2.77
2023-04-12T21:07:11.312Z,3.17
2023-04-12T21:09:40.038Z,3.20
2023-04-12T21:12:08.857Z,2.80
2023-04-12T21:14:38.519Z,3.00
2023-04-12T21:17:07.883Z,3.60
2023-04-12T21:19:39.040Z,3.40
2023-04-12T21:22:09.513Z,3.20
2023-04-12T21:24:38.878Z,3.30
2023-04-12T21:27:08.461Z,3.67
2023-04-12T21:29:41.466Z,3.50
2023-04-12T21:32:10.166Z,3.23
2023-04-12T21:34:39.287Z,3.17
2023-04-12T21:37:09.348Z,3.07
2023-04-12T21:39:39.263Z,3.33
2023-04-12T21:42:07.855Z,3.20
2023-04-12T21:44:36.716Z,3.27
2023-04-12T21:47:05.198Z,3.07
2023-04-12T21:49:34.322Z,2.77
2023-04-12T21:52:02.908Z,2.80
2023-04-12T21:54:36.819Z,3.07
2023-04-12T21:57:05.772Z,3.00
2023-04-12T21:59:34.233Z,2.97
2023-04-12T22:02:02.791Z,2.90
2023-04-12T22:04:31.579Z,2.97
2023-04-12T22:07:02.185Z,2.80
2023-04-12T22:09:30.673Z,3.17
2023-04-12T22:12:02.353Z,3.00
2023-04-12T22:14:31.775Z,2.90
2023-04-12T22:17:00.404Z,3.20
2023-04-12T22:19:29.073Z,2.80
2023-04-12T22:21:57.512Z,3.20
2023-04-12T22:24:26.391Z,3.07
2023-04-12T22:26:57.702Z,3.03
2023-04-12T22:29:27.601Z,3.20
2023-04-12T22:31:56.231Z,3.10
2023-04-12T22:34:24.835Z,3.30
2023-04-12T22:36:58.649Z,3.40
2023-04-12T22:39:28.055Z,2.93
2023-04-12T22:41:57.594Z,3.20
2023-04-12T22:44:29.350Z,3.60
2023-04-12T22:46:58.331Z,3.27
2023-04-12T22:49:28.856Z,3.30
2023-04-12T22:51:57.496Z,3.40
2023-04-12T22:54:26.883Z,3.47
2023-04-12T22:56:55.410Z,3.00
2023-04-12T22:59:24.752Z,3.40
2023-04-12T23:01:55.178Z,3.27
2023-04-12T23:04:23.695Z,3.27
2023-04-12T23:06:55.517Z,3.50
2023-04-12T23:09:24.587Z,3.70
2023-04-12T23:11:53.238Z,3.30
2023-04-12T23:14:22.827Z,3.40
2023-04-12T23:16:51.744Z,3.60
2023-04-12T23:19:23.161Z,3.40
2023-04-12T23:21:51.735Z,3.67
2023-04-12T23:24:20.201Z,3.10
2023-04-12T23:26:48.775Z,3.87
2023-04-12T23:29:17.452Z,3.70
2023-04-12T23:31:46.222Z,3.83
2023-04-12T23:34:14.734Z,3.83
2023-04-12T23:36:44.816Z,3.50
2023-04-12T23:39:13.663Z,3.57
2023-04-12T23:41:42.122Z,3.93
2023-04-12T23:44:10.793Z,3.40
2023-04-12T23:46:39.293Z,4.03
2023-04-12T23:49:08.501Z,4.07
2023-04-12T23:51:37.268Z,4.13
2023-04-12T23:54:07.276Z,4.20
2023-04-12T23:56:35.856Z,4.53
2023-04-12T23:59:04.454Z,4.37
